Time;durP1;ratioP1;P1;durP2;ratioP2;P2;SDS_P1;SDS_P2;PMS_P1;PMS_P2;Temp;Humidity;BMP_temperature;BMP_pressure;BME280_temperature;BME280_humidity;BME280_pressure;Samples;Min_cycle;Max_cycle;Signal;HPM_P1;HPM_P2
2022/06/17 00:00:13;;;;;;;7.60;5.47;;;;;;;18.26;67.20;99723.81;5088369;28;20028;-80
2022/06/17 00:02:39;;;;;;;10.70;6.28;;;;;;;18.06;68.13;99723.91;5069610;28;20051;-80
2022/06/17 00:05:05;;;;;;;7.07;5.97;;;;;;;17.95;68.37;99720.06;5052818;28;20029;-80
2022/06/17 00:07:32;;;;;;;9.57;6.03;;;;;;;17.93;68.78;99719.63;5069884;28;20115;-80
2022/06/17 00:09:58;;;;;;;14.52;7.00;;;;;;;17.53;69.91;99716.97;5053475;28;20570;-80
2022/06/17 00:12:24;;;;;;;11.45;7.00;;;;;;;17.20;71.28;99704.22;5053258;28;20075;-80
2022/06/17 00:17:33;;;;;;;9.25;8.07;;;;;;;16.97;72.17;99693.66;5082699;28;20106;-80
2022/06/17 00:19:59;;;;;;;10.82;7.45;;;;;;;16.88;72.19;99680.97;5090379;28;20027;-80
2022/06/17 00:22:25;;;;;;;8.20;6.80;;;;;;;17.08;71.47;99690.28;5090001;28;20181;-80
2022/06/17 00:24:53;;;;;;;7.07;6.22;;;;;;;17.76;70.02;99713.31;5089916;28;20035;-80
2022/06/17 00:27:19;;;;;;;9.57;6.95;;;;;;;17.94;68.86;99707.94;5091115;28;20035;-80
2022/06/17 00:29:45;;;;;;;9.35;6.13;;;;;;;18.03;67.58;99675.75;5089874;28;20077;-80
2022/06/17 00:32:10;;;;;;;7.57;6.43;;;;;;;18.18;67.02;99693.75;5091146;28;20028;-80
2022/06/17 00:34:36;;;;;;;8.80;6.15;;;;;;;18.46;66.62;99712.34;5089634;28;20472;-80
2022/06/17 00:37:03;;;;;;;16.05;7.15;;;;;;;18.20;66.48;99688.53;5089918;28;20035;-80
2022/06/17 00:39:32;;;;;;;13.95;7.53;;;;;;;17.92;67.86;99707.50;5089747;28;20513;-80
2022/06/17 00:42:07;;;;;;;8.63;7.65;;;;;;;17.68;69.26;99708.72;5089737;28;20023;-81
2022/06/17 00:44:54;;;;;;;11.25;7.70;;;;;;;17.92;68.42;99699.03;5089679;28;20468;-81
2022/06/17 00:47:26;;;;;;;9.02;7.22;;;;;;;18.15;67.82;99703.81;5089765;28;20407;-80
2022/06/17 00:50:02;;;;;;;10.02;7.90;;;;;;;18.14;67.91;99705.03;5089773;28;20115;-80
2022/06/17 00:52:36;;;;;;;9.77;8.68;;;;;;;17.92;68.00;99665.06;5081674;28;20058;-80
2022/06/17 00:55:11;;;;;;;14.02;8.15;;;;;;;18.42;66.53;99691.69;5086309;28;20031;-80
2022/06/17 00:57:41;;;;;;;11.05;7.90;;;;;;;18.47;66.68;99694.19;5086378;28;20040;-80
2022/06/17 01:00:18;;;;;;;9.10;7.43;;;;;;;18.38;67.04;99694.44;5086318;28;20107;-81
2022/06/17 01:02:51;;;;;;;16.33;9.63;;;;;;;18.01;68.70;99695.91;5090996;28;20031;-80
2022/06/17 01:05:20;;;;;;;9.73;8.48;;;;;;;18.17;68.21;99680.81;5090917;28;20020;-80
2022/06/17 01:07:52;;;;;;;12.82;8.80;;;;;;;18.26;67.85;99675.69;5089535;28;20035;-80
2022/06/17 01:10:19;;;;;;;12.50;9.43;;;;;;;18.12;68.53;99684.78;5069998;28;20036;-80
2022/06/17 01:13:05;;;;;;;11.70;10.07;;;;;;;17.60;70.43;99678.66;5072113;28;20020;-80
2022/06/17 01:15:33;;;;;;;15.23;9.95;;;;;;;16.96;73.25;99672.25;5056357;28;20119;-80
2022/06/17 01:18:00;;;;;;;13.82;10.88;;;;;;;16.64;74.87;99680.91;5072803;28;20077;-80
2022/06/17 01:20:30;;;;;;;12.40;10.70;;;;;;;16.19;75.66;99673.88;5072763;28;20036;-80
2022/06/17 01:22:59;;;;;;;21.73;13.10;;;;;;;16.22;76.24;99690.06;5074072;28;20028;-80
2022/06/17 01:25:44;;;;;;;13.65;10.30;;;;;;;16.42;74.70;99688.94;5072698;28;20036;-80
2022/06/17 01:28:14;;;;;;;10.77;9.68;;;;;;;16.47;74.56;99685.00;5094439;28;20043;-80
2022/06/17 01:30:52;;;;;;;32.83;10.88;;;;;;;16.20;75.12;99659.38;5091947;28;20039;-80
2022/06/17 01:33:23;;;;;;;15.73;10.00;;;;;;;16.44;74.49;99673.63;5093057;28;20032;-80
2022/06/17 01:36:18;;;;;;;14.15;9.43;;;;;;;16.30;73.41;99635.44;5075645;28;20058;-80
2022/06/17 01:38:47;;;;;;;16.92;9.23;;;;;;;16.51;73.61;99682.22;5092725;28;20028;-80
2022/06/17 01:41:14;;;;;;;17.85;10.68;;;;;;;16.51;73.02;99682.22;5092634;28;20111;-80
2022/06/17 01:43:39;;;;;;;17.70;8.90;;;;;;;16.04;74.79;99684.03;5092500;28;20082;-80
2022/06/17 01:46:11;;;;;;;17.55;11.00;;;;;;;15.90;74.67;99674.03;5092524;28;20115;-80
2022/06/17 01:48:40;;;;;;;20.90;9.98;;;;;;;15.43;76.78;99668.03;5092464;28;20049;-80
2022/06/17 01:51:08;;;;;;;16.10;9.40;;;;;;;15.42;77.68;99655.13;5092451;28;20024;-80
2022/06/17 01:53:41;;;;;;;14.38;9.30;;;;;;;15.83;75.99;99673.81;5081479;28;20028;-80
2022/06/17 01:56:12;;;;;;;14.68;9.85;;;;;;;15.84;75.13;99656.53;5055729;28;20024;-80
2022/06/17 01:58:50;;;;;;;13.18;9.25;;;;;;;15.84;75.19;99641.63;5071226;28;20036;-80
2022/06/17 02:01:17;;;;;;;18.73;10.15;;;;;;;16.12;74.45;99666.06;5072082;28;20020;-80
2022/06/17 02:03:53;;;;;;;17.52;9.90;;;;;;;15.94;74.49;99654.38;5073073;28;20044;-80
2022/06/17 02:06:53;;;;;;;18.20;10.25;;;;;;;15.88;75.11;99655.81;5070583;28;20036;-80
2022/06/17 02:09:19;;;;;;;15.82;9.45;;;;;;;15.37;76.77;99655.38;5055709;28;20109;-80
2022/06/17 02:11:46;;;;;;;15.40;10.20;;;;;;;15.24;78.17;99665.94;5071817;28;20025;-80
2022/06/17 02:14:13;;;;;;;17.48;10.68;;;;;;;15.23;77.56;99638.94;5071764;28;20020;-81
2022/06/17 02:16:42;;;;;;;17.17;10.50;;;;;;;15.57;76.55;99667.59;5088469;28;20024;-80
2022/06/17 02:19:10;;;;;;;14.52;10.43;;;;;;;15.78;76.10;99666.47;5071613;28;20252;-80
2022/06/17 02:21:42;;;;;;;14.20;9.93;;;;;;;15.96;75.29;99668.94;5071568;28;20554;-80
2022/06/17 02:24:10;;;;;;;13.23;10.25;;;;;;;15.99;74.44;99660.56;5087400;28;20510;-80
2022/06/17 02:26:38;;;;;;;16.75;11.52;;;;;;;16.40;73.57;99671.50;5071430;28;20028;-80
2022/06/17 02:29:11;;;;;;;22.20;12.23;;;;;;;16.49;72.78;99665.69;5071330;28;20093;-80
2022/06/17 02:31:40;;;;;;;25.83;15.05;;;;;;;16.39;73.36;99686.03;5071458;28;20115;-80
2022/06/17 02:34:08;;;;;;;33.33;18.23;;;;;;;15.88;74.96;99662.28;5071278;28;20400;-80
2022/06/17 02:37:08;;;;;;;28.70;19.35;;;;;;;15.92;75.72;99665.19;5072820;28;20020;-80
2022/06/17 02:39:38;;;;;;;24.35;19.52;;;;;;;16.14;75.00;99684.25;5071273;28;20086;-80
2022/06/17 02:42:05;;;;;;;26.17;19.40;;;;;;;15.73;76.57;99678.03;5071113;28;20473;-80
2022/06/17 02:44:39;;;;;;;24.83;19.45;;;;;;;15.62;77.19;99676.94;5054353;28;20389;-80
2022/06/17 02:47:06;;;;;;;25.25;19.17;;;;;;;15.66;77.25;99683.47;5071126;28;20093;-80
2022/06/17 02:49:35;;;;;;;22.10;18.73;;;;;;;15.46;77.75;99689.03;5070741;28;20024;-80
2022/06/17 02:52:09;;;;;;;30.98;20.85;;;;;;;14.97;80.33;99695.78;5080368;28;20024;-80
2022/06/17 02:54:40;;;;;;;26.27;19.25;;;;;;;14.77;80.49;99675.09;5092805;28;20026;-80
2022/06/17 02:57:23;;;;;;;28.58;18.65;;;;;;;15.09;79.67;99678.81;5092394;28;20031;-80
2022/06/17 03:00:03;;;;;;;26.38;19.45;;;;;;;15.20;79.16;99670.63;5091112;28;20031;-80
2022/06/17 03:02:36;;;;;;;29.73;19.38;;;;;;;15.30;79.21;99692.66;5091067;28;20028;-80
2022/06/17 03:05:05;;;;;;;30.27;22.67;;;;;;;15.13;79.60;99688.16;5090645;28;20039;-80
2022/06/17 03:07:31;;;;;;;25.83;21.73;;;;;;;15.04;80.49;99695.97;5080310;28;20054;-80
2022/06/17 03:09:57;;;;;;;44.63;23.10;;;;;;;14.92;81.10;99705.28;5070567;28;20028;-80
2022/06/17 03:12:32;;;;;;;36.45;24.75;;;;;;;14.78;82.08;99697.28;5071940;28;20455;-80
2022/06/17 03:15:06;;;;;;;35.33;24.13;;;;;;;14.74;83.02;99691.53;5070545;28;20062;-80
2022/06/17 03:17:34;;;;;;;33.22;26.05;;;;;;;14.70;83.65;99701.81;5070541;28;20044;-80
2022/06/17 03:20:02;;;;;;;34.08;24.33;;;;;;;14.86;83.70;99701.91;5070528;28;20028;-80
2022/06/17 03:22:29;;;;;;;33.60;23.88;;;;;;;14.96;83.44;99702.59;5069994;28;20025;-80
2022/06/17 03:25:29;;;;;;;32.00;25.00;;;;;;;15.06;83.10;99710.53;5070370;28;20024;-80
2022/06/17 03:28:08;;;;;;;29.80;25.15;;;;;;;15.10;82.85;99713.44;5072019;28;20584;-80
2022/06/17 03:30:38;;;;;;;40.78;25.13;;;;;;;14.97;82.26;99693.78;5070403;28;20031;-80
2022/06/17 03:33:11;;;;;;;34.95;22.90;;;;;;;15.17;82.50;99716.44;5070367;28;20115;-80
2022/06/17 03:35:40;;;;;;;26.85;21.10;;;;;;;15.01;82.87;99707.94;5068958;28;20040;-80
2022/06/17 03:38:29;;;;;;;28.02;21.98;;;;;;;15.08;83.28;99710.97;5070196;28;20039;-80
2022/06/17 03:41:02;;;;;;;35.25;20.40;;;;;;;15.14;82.96;99711.53;5070154;28;20024;-80
2022/06/17 03:43:38;;;;;;;26.77;19.08;;;;;;;14.98;83.57;99715.13;5070329;28;20086;-80
2022/06/17 03:46:06;;;;;;;30.92;18.58;;;;;;;15.16;83.34;99714.81;5070116;28;20063;-80
2022/06/17 03:48:40;;;;;;;24.25;19.42;;;;;;;15.05;83.32;99700.44;5070213;28;20119;-80
2022/06/17 03:51:13;;;;;;;24.17;18.02;;;;;;;15.15;83.49;99708.38;5070019;28;20024;-80
2022/06/17 03:53:42;;;;;;;26.35;18.88;;;;;;;14.87;84.31;99689.47;5070072;28;20039;-79
2022/06/17 03:56:26;;;;;;;25.08;17.50;;;;;;;14.85;84.83;99699.47;5069976;28;20106;-80
2022/06/17 03:58:54;;;;;;;19.73;16.33;;;;;;;14.90;84.28;99699.22;5070344;28;20035;-80
2022/06/17 04:01:28;;;;;;;18.05;14.77;;;;;;;15.18;83.43;99714.47;5069984;28;20033;-78
2022/06/17 04:03:57;;;;;;;21.38;14.32;;;;;;;15.18;82.62;99689.91;5074180;28;20078;-79
2022/06/17 04:06:29;;;;;;;24.33;15.35;;;;;;;15.39;82.52;99709.41;5069860;28;20035;-80
2022/06/17 04:08:58;;;;;;;22.20;16.15;;;;;;;15.41;83.37;99712.69;5070204;28;20031;-81
2022/06/17 04:11:35;;;;;;;22.45;16.02;;;;;;;15.52;83.46;99700.88;5069875;28;20024;-79
2022/06/17 04:14:04;;;;;;;21.05;16.38;;;;;;;15.55;84.02;99711.41;5070087;28;20036;-79
2022/06/17 04:16:55;;;;;;;33.63;17.48;;;;;;;15.54;84.53;99712.59;5071131;28;20043;-76
2022/06/17 04:19:22;;;;;;;;;;;;;;;15.41;84.40;99712.69;5071651;28;20048;-77
2022/06/17 04:21:48;;;;;;;20.33;15.77;;;;;;;15.36;85.03;99707.28;5069775;28;19908;-77
2022/06/17 04:24:22;;;;;;;22.33;17.08;;;;;;;15.27;85.03;99703.84;5069738;28;20116;-79
2022/06/17 04:26:52;;;;;;;23.92;15.18;;;;;;;15.48;84.78;99714.84;5069673;28;20021;-78
2022/06/17 04:29:22;;;;;;;20.60;16.08;;;;;;;15.63;84.52;99713.25;5071808;28;20111;-77
2022/06/17 04:31:59;;;;;;;22.83;17.17;;;;;;;15.74;84.47;99713.50;5087004;28;20480;-77
2022/06/17 04:34:25;;;;;;;20.08;15.43;;;;;;;15.90;83.50;99721.16;5070824;28;20066;-76
2022/06/17 04:37:02;;;;;;;21.63;14.50;;;;;;;16.17;82.27;99707.28;5071094;28;20025;-76
2022/06/17 04:39:36;;;;;;;26.95;14.45;;;;;;;16.33;80.64;99708.06;5086219;28;20020;-75
2022/06/17 04:42:06;;;;;;;18.30;11.95;;;;;;;16.59;78.46;99689.66;5091416;28;20082;-74
2022/06/17 04:44:32;;;;;;;18.95;10.98;;;;;;;16.84;76.16;99717.63;5077415;28;20027;-74
2022/06/17 04:47:15;;;;;;;14.10;10.70;;;;;;;16.94;76.80;99713.38;5075564;28;20107;-74
2022/06/17 04:49:50;;;;;;;18.27;11.82;;;;;;;17.14;76.04;99705.75;5076422;28;20479;-77
2022/06/17 04:52:24;;;;;;;16.75;11.45;;;;;;;17.17;76.76;99716.28;5073170;28;20031;-77
2022/06/17 04:54:50;;;;;;;13.43;11.45;;;;;;;16.95;76.40;99690.41;5074747;28;20481;-74
2022/06/17 04:57:16;;;;;;;19.00;11.82;;;;;;;16.92;77.25;99716.59;5074625;28;20024;-76
2022/06/17 04:59:47;;;;;;;13.60;11.40;;;;;;;17.21;76.16;99713.53;5073647;28;20028;-77
2022/06/17 05:02:20;;;;;;;15.48;10.70;;;;;;;17.53;74.94;99705.66;5077343;28;20027;-79
2022/06/17 05:04:52;;;;;;;22.73;10.95;;;;;;;17.60;73.74;99685.16;5086706;28;20024;-78
2022/06/17 05:07:18;;;;;;;18.42;11.40;;;;;;;17.88;72.60;99700.97;5074961;28;20463;-79
2022/06/17 05:10:01;;;;;;;10.20;8.80;;;;;;;18.03;71.02;99701.22;5084652;28;20051;-77
2022/06/17 05:12:39;;;;;;;17.73;10.18;;;;;;;18.13;70.29;99702.59;5074315;28;20060;-75
2022/06/17 05:15:10;;;;;;;12.98;8.88;;;;;;;18.38;69.90;99703.78;5075364;28;20052;-74
2022/06/17 05:17:38;;;;;;;11.90;10.00;;;;;;;18.58;69.88;99711.31;5072544;28;20035;-74
2022/06/17 05:20:05;;;;;;;13.50;9.77;;;;;;;18.38;69.83;99698.13;5085821;28;20028;-75
2022/06/17 05:22:41;;;;;;;9.88;6.70;;;;;;;18.31;65.78;99703.66;5087085;28;20059;-75
2022/06/17 05:25:13;;;;;;;8.07;7.03;;;;;;;18.22;65.08;99712.44;5075326;28;20031;-77
2022/06/17 05:27:39;;;;;;;13.07;7.05;;;;;;;18.62;65.73;99712.16;5084813;28;20135;-75
2022/06/17 05:30:05;;;;;;;15.27;6.70;;;;;;;18.63;63.82;99708.97;5094136;28;20099;-77
2022/06/17 05:32:31;;;;;;;7.10;6.40;;;;;;;18.86;63.10;99715.72;5088604;27;20550;-76
2022/06/17 05:34:57;;;;;;;9.40;6.38;;;;;;;19.11;62.95;99710.38;5086593;28;20048;-73
2022/06/17 05:37:22;;;;;;;14.55;7.18;;;;;;;19.44;62.99;99710.72;5087844;28;20035;-75
2022/06/17 05:39:48;;;;;;;11.77;8.45;;;;;;;19.38;62.88;99712.28;5084629;28;20034;-75
2022/06/17 05:42:13;;;;;;;13.95;8.73;;;;;;;19.26;64.14;99719.03;5083940;28;20446;-73
2022/06/17 05:44:39;;;;;;;17.27;9.10;;;;;;;19.60;64.05;99711.25;5077047;28;20032;-74
2022/06/17 05:47:05;;;;;;;13.07;9.20;;;;;;;19.55;63.35;99707.97;5083735;28;20020;-74
2022/06/17 05:49:31;;;;;;;11.82;8.80;;;;;;;19.60;63.20;99702.75;5073635;28;20107;-75
2022/06/17 05:51:58;;;;;;;12.57;7.47;;;;;;;19.42;61.86;99691.25;5086884;28;20027;-76
2022/06/17 05:54:23;;;;;;;7.40;6.72;;;;;;;19.52;59.97;99692.56;5074975;28;20461;-77
2022/06/17 05:56:49;;;;;;;14.27;7.40;;;;;;;19.49;60.78;99691.31;5085780;28;20032;-77
2022/06/17 05:59:17;;;;;;;7.82;5.78;;;;;;;19.61;59.33;99686.56;5092403;28;20020;-76
2022/06/17 06:01:43;;;;;;;7.50;5.78;;;;;;;19.64;58.12;99694.28;5088499;28;20039;-77
2022/06/17 06:04:09;;;;;;;7.85;4.78;;;;;;;19.38;56.85;99687.56;5074206;28;20042;-75
2022/06/17 06:06:35;;;;;;;5.43;4.78;;;;;;;19.62;56.78;99691.84;5081340;28;20028;-76
2022/06/17 06:09:01;;;;;;;6.90;4.32;;;;;;;20.01;56.05;99684.88;5074057;28;20052;-81
2022/06/17 06:11:26;;;;;;;6.80;4.68;;;;;;;20.24;56.85;99691.53;5085365;28;20043;-79
2022/06/17 06:13:52;;;;;;;9.23;4.93;;;;;;;20.50;55.13;99679.06;5088090;28;20028;-75
2022/06/17 06:16:17;;;;;;;9.25;5.00;;;;;;;20.32;55.35;99696.03;5083009;28;20538;-79
2022/06/17 06:18:47;;;;;;;9.60;5.45;;;;;;;20.38;55.44;99687.94;5067599;28;20043;-79
2022/06/17 06:21:16;;;;;;;32.20;7.05;;;;;;;20.67;55.21;99693.78;5073603;28;20536;-80
2022/06/17 06:23:42;;;;;;;11.48;6.80;;;;;;;20.74;56.14;99674.75;5068429;28;20131;-76
2022/06/17 06:26:13;;;;;;;9.38;6.07;;;;;;;21.05;55.41;99697.22;5075716;28;20024;-76
2022/06/17 06:28:39;;;;;;;8.60;5.70;;;;;;;20.76;56.52;99682.88;5087329;28;20119;-76
2022/06/17 06:31:31;;;;;;;10.20;5.70;;;;;;;21.29;55.96;99678.56;5085807;28;20070;-76
2022/06/17 06:33:57;;;;;;;8.55;5.75;;;;;;;21.28;54.41;99673.28;5079247;28;20031;-77
2022/06/17 06:36:26;;;;;;;11.48;6.85;;;;;;;21.38;54.90;99672.50;5104713;28;20104;-76
2022/06/17 06:38:51;;;;;;;7.57;6.80;;;;;;;20.94;55.63;99665.09;5101239;27;20062;-76
2022/06/17 06:41:21;;;;;;;22.67;7.53;;;;;;;20.95;55.23;99669.56;5096704;28;20040;-77
2022/06/17 06:43:48;;;;;;;7.15;5.93;;;;;;;21.00;55.81;99654.97;5089397;28;20032;-76
2022/06/17 06:46:17;;;;;;;7.38;6.20;;;;;;;21.26;54.02;99661.50;5071092;28;20497;-76
2022/06/17 06:48:43;;;;;;;10.20;6.00;;;;;;;21.37;53.25;99653.81;5090170;28;20449;-77
2022/06/17 06:51:09;;;;;;;7.70;5.55;;;;;;;21.74;54.35;99646.94;5071915;28;20032;-79
2022/06/17 06:53:34;;;;;;;7.30;4.95;;;;;;;21.94;52.45;99655.03;5078259;28;20020;-78
2022/06/17 06:56:01;;;;;;;6.20;5.60;;;;;;;21.92;51.89;99646.09;5085219;28;20028;-78
2022/06/17 06:58:27;;;;;;;9.02;5.38;;;;;;;22.12;50.80;99637.13;5074939;28;20096;-80
2022/06/17 07:00:56;;;;;;;7.45;4.72;;;;;;;22.39;49.45;99616.69;5071894;28;20103;-81
2022/06/17 07:03:23;;;;;;;7.38;4.95;;;;;;;22.44;49.20;99631.31;5070590;28;20021;-81
2022/06/17 07:05:58;;;;;;;9.82;7.25;;;;;;;22.29;51.31;99612.66;5070721;28;20034;-81
2022/06/17 07:08:28;;;;;;;7.20;5.97;;;;;;;22.56;49.01;99618.69;5071091;28;20095;-81
2022/06/17 07:10:55;;;;;;;19.95;13.18;;;;;;;22.84;48.43;99614.06;5070868;28;20027;-81
2022/06/17 07:13:22;;;;;;;11.32;6.75;;;;;;;22.92;48.84;99596.88;5072062;28;20028;-81
2022/06/17 07:15:49;;;;;;;10.57;6.38;;;;;;;22.92;47.13;99609.13;5072135;28;20052;-81
2022/06/17 07:18:18;;;;;;;7.60;5.43;;;;;;;22.22;47.50;99602.09;5071462;28;20024;-81
2022/06/17 07:20:47;;;;;;;8.65;5.65;;;;;;;22.70;47.34;99585.63;5072179;28;20025;-79
2022/06/17 07:23:18;;;;;;;10.77;6.28;;;;;;;22.53;46.98;99593.84;5071830;28;20024;-80
2022/06/17 07:25:45;;;;;;;6.10;4.45;;;;;;;22.66;46.15;99593.38;5070566;28;20042;-80
2022/06/17 07:28:14;;;;;;;6.82;4.38;;;;;;;22.23;46.45;99589.47;5070300;28;20074;-79
2022/06/17 07:30:42;;;;;;;8.80;4.30;;;;;;;22.40;45.45;99582.09;5071119;28;20403;-79
2022/06/17 07:33:08;;;;;;;6.32;5.47;;;;;;;22.54;46.27;99592.63;5072873;28;20475;-80
2022/06/17 07:35:33;;;;;;;12.57;5.53;;;;;;;22.95;46.55;99585.47;5083238;28;20040;-80
2022/06/17 07:40:47;;;;;;;5.30;4.68;;;;;;;23.48;44.96;99585.53;5078751;28;20411;-80
2022/06/17 07:43:14;;;;;;;18.77;6.57;;;;;;;23.76;46.90;99579.94;5071515;28;20410;-80
2022/06/17 07:45:41;;;;;;;19.83;5.43;;;;;;;23.48;46.71;99576.13;5076170;28;20115;-80
2022/06/17 07:48:07;;;;;;;8.80;5.88;;;;;;;23.22;46.05;99592.63;5092047;28;20030;-79
2022/06/17 07:50:33;;;;;;;12.73;5.65;;;;;;;23.51;45.55;99589.56;5090536;28;20024;-82
2022/06/17 07:53:00;;;;;;;5.65;4.35;;;;;;;23.54;46.09;99580.19;5089547;28;20489;-80
2022/06/17 07:55:25;;;;;;;10.55;4.60;;;;;;;23.34;46.97;99583.59;5088367;28;20021;-80
2022/06/17 07:57:52;;;;;;;10.88;5.45;;;;;;;23.55;46.92;99584.66;5081256;28;20418;-81
2022/06/17 08:00:24;;;;;;;6.18;5.50;;;;;;;23.70;46.15;99585.31;5071665;28;20032;-82
2022/06/17 08:02:50;;;;;;;9.70;4.88;;;;;;;24.20;45.65;99575.41;5070012;28;20027;-82
2022/06/17 08:05:17;;;;;;;11.38;5.88;;;;;;;24.05;45.21;99573.97;5072118;28;20020;-80
2022/06/17 08:07:42;;;;;;;16.63;5.55;;;;;;;23.92;44.07;99580.19;5090096;28;20032;-80
2022/06/17 08:10:11;;;;;;;12.50;5.28;;;;;;;23.79;44.61;99573.41;5086181;28;20052;-80
2022/06/17 08:12:36;;;;;;;8.73;5.43;;;;;;;24.01;45.56;99573.16;5077481;28;20075;-81
2022/06/17 08:15:03;;;;;;;8.65;5.47;;;;;;;24.18;44.50;99563.63;5069958;28;20027;-81
2022/06/17 08:17:30;;;;;;;9.93;5.65;;;;;;;23.79;46.05;99577.06;5071240;28;20028;-76
2022/06/17 08:19:56;;;;;;;21.77;5.50;;;;;;;24.07;45.05;99577.22;5086627;28;20543;-77
2022/06/17 08:22:25;;;;;;;6.25;4.82;;;;;;;24.15;44.70;99566.50;5073082;28;20024;-76
2022/06/17 08:24:58;;;;;;;11.23;5.50;;;;;;;24.28;44.46;99566.78;5077233;28;20044;-77
2022/06/17 08:27:23;;;;;;;6.90;5.97;;;;;;;24.39;44.59;99565.38;5079601;28;20063;-76
2022/06/17 08:29:51;;;;;;;9.82;6.07;;;;;;;24.58;44.43;99562.28;5081564;28;20051;-77
2022/06/17 08:35:01;;;;;;;6.20;5.30;;;;;;;25.07;42.80;99550.56;5080184;28;20079;-77
2022/06/17 08:37:27;;;;;;;14.23;7.85;;;;;;;25.35;42.42;99569.34;5082360;28;20210;-77
2022/06/17 08:39:54;;;;;;;7.18;6.35;;;;;;;25.25;42.57;99553.16;5077226;28;20124;-76
2022/06/17 08:42:26;;;;;;;7.20;4.72;;;;;;;25.50;41.58;99567.03;5084087;28;20028;-77
2022/06/17 08:45:22;;;;;;;6.20;5.38;;;;;;;25.88;41.58;99553.69;5076570;28;20422;-77
2022/06/17 08:48:08;;;;;;;14.50;5.35;;;;;;;25.91;42.06;99561.41;5079811;28;20020;-80
2022/06/17 08:50:58;;;;;;;22.30;6.88;;;;;;;26.29;40.83;99546.75;5078589;28;20044;-80
2022/06/17 08:53:52;;;;;;;8.40;5.47;;;;;;;25.92;40.03;99551.56;5073473;28;20479;-80
2022/06/17 08:56:55;;;;;;;8.73;5.53;;;;;;;26.26;40.96;99541.09;5077048;28;20040;-80
2022/06/17 08:59:42;;;;;;;10.00;4.97;;;;;;;26.81;39.98;99547.25;5065562;28;20502;-78
2022/06/17 09:02:44;;;;;;;8.63;5.18;;;;;;;26.75;38.87;99544.09;5075948;28;20577;-80
2022/06/17 09:05:40;;;;;;;27.27;6.32;;;;;;;26.30;39.94;99547.56;5073217;28;20024;-82
2022/06/17 09:08:31;;;;;;;6.50;5.40;;;;;;;25.68;41.86;99551.59;5075283;28;20519;-76
2022/06/17 09:11:27;;;;;;;10.70;5.13;;;;;;;25.89;41.65;99546.72;5084685;28;20035;-78
2022/06/17 09:14:23;;;;;;;10.73;6.13;;;;;;;25.74;41.51;99552.72;5081882;28;20063;-75
2022/06/17 09:17:00;;;;;;;5.88;5.38;;;;;;;26.31;39.71;99544.25;5090128;28;20054;-79
2022/06/17 09:19:30;;;;;;;7.78;6.00;;;;;;;26.72;40.41;99544.19;5086986;28;20020;-75
2022/06/17 09:22:20;;;;;;;6.78;6.07;;;;;;;27.18;39.84;99544.38;5079336;28;20107;-79
2022/06/17 09:24:45;;;;;;;10.35;5.50;;;;;;;27.15;37.96;99530.88;5083892;28;20036;-79
2022/06/17 09:27:23;;;;;;;13.35;6.93;;;;;;;27.22;38.09;99524.97;5072407;28;20032;-80
2022/06/17 09:29:53;;;;;;;6.75;6.00;;;;;;;27.24;37.53;99521.69;5071264;28;20039;-77
2022/06/17 09:32:29;;;;;;;7.47;5.82;;;;;;;27.35;39.51;99527.13;5072438;28;20044;-79
2022/06/17 09:35:27;;;;;;;6.95;5.65;;;;;;;27.46;37.80;99527.66;5081205;28;20067;-78
2022/06/17 09:38:40;;;;;;;12.93;5.82;;;;;;;27.67;38.78;99511.13;5050654;28;20545;-78
2022/06/17 09:41:42;;;;;;;5.50;4.82;;;;;;;27.69;37.40;99514.38;5025524;28;20083;-76
2022/06/17 09:44:14;;;;;;;5.72;5.22;;;;;;;27.52;38.25;99507.81;5028449;28;20039;-77
2022/06/17 09:46:44;;;;;;;7.53;6.10;;;;;;;27.84;39.42;99514.78;5068401;28;20052;-77
2022/06/17 09:49:22;;;;;;;;;;;;;;;27.90;38.16;99504.31;5092155;28;20077;-76
2022/06/17 09:52:12;;;;;;;8.77;5.90;;;;;;;27.97;39.17;99503.31;5073998;28;19913;-78
2022/06/17 09:54:45;;;;;;;7.10;5.47;;;;;;;28.11;38.65;99500.00;5082776;28;20081;-79
2022/06/17 09:57:29;;;;;;;6.53;5.65;;;;;;;28.43;37.88;99500.34;5077992;28;20028;-80
2022/06/17 10:00:04;;;;;;;8.15;5.80;;;;;;;28.44;36.85;99499.09;5081003;28;20050;-79
2022/06/17 10:02:47;;;;;;;10.07;6.85;;;;;;;28.63;36.78;99500.13;5085750;28;20144;-79
2022/06/17 10:05:17;;;;;;;12.60;9.48;;;;;;;28.65;35.74;99496.78;5091971;28;20031;-79
2022/06/17 10:07:56;;;;;;;8.25;7.55;;;;;;;28.68;34.77;99498.75;5087783;28;20028;-79
2022/06/17 10:10:23;;;;;;;20.05;7.43;;;;;;;28.47;34.19;99494.47;5091648;28;20016;-79
2022/06/17 10:13:12;;;;;;;8.73;7.28;;;;;;;28.66;35.30;99499.22;5081042;28;20472;-79
2022/06/17 10:15:40;;;;;;;7.50;6.75;;;;;;;28.88;34.88;99487.03;5078157;28;20047;-78
2022/06/17 10:18:34;;;;;;;8.43;7.63;;;;;;;28.91;35.99;99493.97;5071375;28;20381;-79
2022/06/17 10:21:27;;;;;;;9.10;7.13;;;;;;;28.93;34.05;99491.41;5082275;28;20031;-79
2022/06/17 10:24:12;;;;;;;7.78;6.97;;;;;;;28.86;33.75;99484.63;5095299;28;20391;-79
2022/06/17 10:26:55;;;;;;;8.70;7.30;;;;;;;28.83;34.41;99482.66;5071607;28;20441;-79
2022/06/17 10:29:24;;;;;;;7.22;6.50;;;;;;;28.75;34.34;99480.47;5073808;28;20028;-79
2022/06/17 10:31:51;;;;;;;15.25;7.28;;;;;;;28.79;33.95;99472.50;5078074;28;20475;-79
2022/06/17 10:34:35;;;;;;;12.13;8.00;;;;;;;29.06;33.97;99457.66;5075748;28;20028;-80
2022/06/17 10:37:03;;;;;;;7.13;6.57;;;;;;;28.93;33.47;99465.50;5073568;28;20368;-80
2022/06/17 10:39:31;;;;;;;11.13;7.13;;;;;;;28.96;34.21;99468.28;5071293;28;20032;-80
2022/06/17 10:41:58;;;;;;;8.68;7.28;;;;;;;29.20;33.06;99456.38;5076438;28;20024;-80
2022/06/17 10:44:25;;;;;;;9.50;7.65;;;;;;;29.47;33.82;99460.81;5081578;28;20020;-80
2022/06/17 10:47:14;;;;;;;8.90;6.75;;;;;;;29.54;33.43;99463.41;5079943;28;20036;-80
2022/06/17 10:49:46;;;;;;;9.48;6.97;;;;;;;29.41;34.05;99445.34;5080276;28;20575;-78
2022/06/17 10:52:20;;;;;;;18.35;6.85;;;;;;;29.55;33.29;99449.81;5086059;28;20031;-79
2022/06/17 10:54:48;;;;;;;10.63;6.90;;;;;;;29.50;34.54;99454.09;5083367;28;20676;-80
2022/06/17 10:57:32;;;;;;;7.55;6.82;;;;;;;29.66;33.00;99453.13;5087404;28;20024;-80
2022/06/17 10:59:58;;;;;;;8.77;6.90;;;;;;;29.67;32.77;99436.63;5080905;28;20078;-80
2022/06/17 11:02:29;;;;;;;7.57;6.75;;;;;;;29.80;32.13;99448.88;5074220;28;20036;-80
2022/06/17 11:05:04;;;;;;;11.50;7.82;;;;;;;29.74;31.83;99445.00;5074016;28;20073;-80
2022/06/17 11:07:48;;;;;;;10.02;7.30;;;;;;;30.06;34.19;99437.25;5090024;28;20430;-80
2022/06/17 11:10:13;;;;;;;7.43;6.35;;;;;;;30.45;33.38;99439.81;5082566;28;20032;-79
2022/06/17 11:12:53;;;;;;;8.38;7.40;;;;;;;30.66;32.43;99438.19;5076238;28;20036;-79
2022/06/17 11:15:24;;;;;;;11.48;6.75;;;;;;;30.62;32.90;99425.94;5080962;28;20024;-80
2022/06/17 11:17:54;;;;;;;7.05;5.93;;;;;;;30.94;31.15;99437.44;5075602;28;20040;-80
2022/06/17 11:20:23;;;;;;;6.85;6.28;;;;;;;30.89;32.11;99423.66;5077182;28;20111;-79
2022/06/17 11:23:22;;;;;;;13.23;6.43;;;;;;;30.80;32.41;99425.22;5078923;28;20446;-80
2022/06/17 11:25:54;;;;;;;8.50;6.88;;;;;;;30.65;31.31;99416.41;5068754;28;20475;-80
2022/06/17 11:28:25;;;;;;;8.75;6.78;;;;;;;30.48;30.01;99417.88;5080194;28;20023;-79
2022/06/17 11:30:50;;;;;;;8.48;6.68;;;;;;;30.80;31.79;99405.03;5103341;28;20023;-80
2022/06/17 11:33:53;;;;;;;7.82;6.40;;;;;;;30.91;31.16;99407.47;5092799;28;20421;-80
2022/06/17 11:36:30;;;;;;;8.25;7.30;;;;;;;30.82;30.08;99405.34;5073424;28;20058;-80
2022/06/17 11:39:27;;;;;;;8.07;6.60;;;;;;;30.46;30.53;99398.16;5082797;28;20051;-79
2022/06/17 11:41:52;;;;;;;7.13;6.50;;;;;;;30.88;31.11;99398.97;5075538;28;20020;-79
2022/06/17 11:44:20;;;;;;;7.65;6.95;;;;;;;31.23;30.61;99392.94;5088680;28;20036;-80
2022/06/17 11:47:01;;;;;;;8.15;7.25;;;;;;;31.40;28.49;99386.84;5085981;28;20043;-80
2022/06/17 11:49:32;;;;;;;7.70;6.80;;;;;;;30.87;28.32;99377.16;5082272;28;20027;-80
2022/06/17 11:52:01;;;;;;;7.60;6.85;;;;;;;31.33;26.86;99385.88;5070652;28;20059;-80
2022/06/17 11:54:36;;;;;;;10.00;6.82;;;;;;;31.47;27.11;99381.53;5072972;28;20106;-79
2022/06/17 11:57:18;;;;;;;7.15;6.40;;;;;;;31.82;27.12;99380.41;5070703;28;20033;-79
2022/06/17 11:59:47;;;;;;;8.55;6.35;;;;;;;31.64;24.82;99367.53;5085523;28;20103;-79